Time;durP1;ratioP1;P1;durP2;ratioP2;P2;SDS_P1;SDS_P2;PMS_P1;PMS_P2;Temp;Humidity;BMP_temperature;BMP_pressure;BME280_temperature;BME280_humidity;BME280_pressure;Samples;Min_cycle;Max_cycle;Signal;HPM_P1;HPM_P2
2021/08/24 00:00:13;;;;;;;10.60;5.40;;;;;;;15.58;89.21;100794.52;93241;1207;79821;-73
2021/08/24 00:02:39;;;;;;;6.00;5.00;;;;;;;15.60;89.27;100791.17;92972;1207;79756;-72
2021/08/24 00:04:47;;;;;;;4.70;4.20;;;;;;;15.58;89.17;100793.86;93220;1206;95772;-72
2021/08/24 00:06:54;;;;;;;5.60;3.90;;;;;;;15.55;89.12;100794.41;93232;1206;86981;-74
2021/08/24 00:09:03;;;;;;;5.80;4.30;;;;;;;15.56;89.06;100795.13;93212;1205;92937;-73
2021/08/24 00:11:12;;;;;;;6.50;4.40;;;;;;;15.60;88.98;100798.14;93228;1205;79953;-74
2021/08/24 00:13:21;;;;;;;7.80;4.60;;;;;;;15.62;89.03;100794.14;93244;1206;80807;-73
2021/08/24 00:15:30;;;;;;;5.10;4.10;;;;;;;15.61;89.04;100793.07;93227;1206;96558;-72
2021/08/24 00:17:38;;;;;;;5.10;4.60;;;;;;;15.55;89.04;100791.73;93264;1207;89259;-74
2021/08/24 00:19:45;;;;;;;5.50;4.20;;;;;;;15.50;89.06;100788.59;93223;1206;94621;-64
2021/08/24 00:21:54;;;;;;;6.10;4.40;;;;;;;15.53;88.98;100790.98;93217;1205;80543;-64
2021/08/24 00:24:01;;;;;;;6.30;3.80;;;;;;;15.48;89.01;100794.64;93245;1206;80605;-65
2021/08/24 00:26:09;;;;;;;6.20;4.10;;;;;;;15.46;88.93;100796.59;93209;1207;96701;-65
2021/08/24 00:28:17;;;;;;;5.40;3.90;;;;;;;15.42;88.94;100789.50;93202;1206;87261;-73
2021/08/24 00:30:28;;;;;;;5.60;4.20;;;;;;;15.46;88.92;100796.55;93205;1206;94623;-74
2021/08/24 00:32:35;;;;;;;5.80;4.10;;;;;;;15.50;88.94;100799.61;93236;1206;80542;-74
2021/08/24 00:34:43;;;;;;;6.40;4.80;;;;;;;15.49;89.03;100796.60;93257;1206;80324;-75
2021/08/24 00:36:50;;;;;;;5.60;4.10;;;;;;;15.43;88.78;100799.52;93219;1207;96096;-73
2021/08/24 00:38:58;;;;;;;6.50;4.40;;;;;;;15.44;88.75;100796.70;93219;1207;87147;-66
2021/08/24 00:41:07;;;;;;;5.40;3.80;;;;;;;15.40;88.85;100796.66;93245;1206;94628;-66
2021/08/24 00:43:15;;;;;;;6.80;4.90;;;;;;;15.38;88.87;100795.86;93143;1207;80953;-64
2021/08/24 00:45:23;;;;;;;6.40;4.40;;;;;;;15.35;88.81;100796.92;93251;1207;80677;-65
2021/08/24 00:47:36;;;;;;;6.60;4.80;;;;;;;15.38;88.78;100794.27;93201;1205;96737;-65
2021/08/24 00:49:44;;;;;;;5.80;5.00;;;;;;;15.41;88.78;100804.41;93254;1207;88010;-65
2021/08/24 00:52:00;;;;;;;6.60;4.10;;;;;;;15.38;88.72;100806.55;93251;1206;93499;-65
2021/08/24 00:54:10;;;;;;;5.50;3.90;;;;;;;15.41;88.55;100801.60;93239;1206;81858;-75
2021/08/24 00:56:19;;;;;;;4.90;4.10;;;;;;;15.36;88.53;100803.95;93353;1204;82056;-73
2021/08/24 00:58:26;;;;;;;6.40;4.20;;;;;;;15.28;88.69;100803.91;93329;1204;96407;-73
2021/08/24 01:00:35;;;;;;;6.40;4.60;;;;;;;15.26;88.62;100806.63;93340;1204;87773;-73
2021/08/24 01:02:42;;;;;;;5.90;4.50;;;;;;;15.24;88.72;100806.84;93354;1204;94002;-75
2021/08/24 01:04:52;;;;;;;6.40;4.10;;;;;;;15.23;88.68;100807.14;93308;1204;81473;-63
2021/08/24 01:07:09;;;;;;;6.40;4.20;;;;;;;15.26;88.72;100812.24;93341;1204;81476;-63
2021/08/24 01:09:32;;;;;;;6.50;3.90;;;;;;;15.27;88.67;100815.73;93347;1204;97832;-65
2021/08/24 01:11:50;;;;;;;4.50;3.70;;;;;;;15.26;88.73;100817.65;93358;1204;87221;-65
2021/08/24 01:14:14;;;;;;;5.20;4.30;;;;;;;15.23;88.85;100817.90;93370;1204;94515;-65
2021/08/24 01:16:33;;;;;;;4.40;4.00;;;;;;;15.25;88.77;100817.73;93331;1203;78530;-65
2021/08/24 01:18:53;;;;;;;6.60;4.40;;;;;;;15.25;88.71;100820.50;93340;1204;82596;-66
2021/08/24 01:21:30;;;;;;;4.60;3.90;;;;;;;15.19;88.68;100819.70;93341;1204;96564;-65
2021/08/24 01:23:53;;;;;;;5.70;4.40;;;;;;;15.21;88.60;100815.81;93345;1204;87443;-73
2021/08/24 01:26:10;;;;;;;7.00;4.20;;;;;;;15.25;88.66;100817.18;93324;1204;94397;-72
2021/08/24 01:28:28;;;;;;;5.80;4.00;;;;;;;15.20;88.69;100818.61;93345;1204;79176;-74
2021/08/24 01:31:12;;;;;;;6.00;4.00;;;;;;;15.18;88.74;100825.35;93350;1204;81748;-74
2021/08/24 01:33:29;;;;;;;5.40;4.10;;;;;;;15.17;88.68;100820.66;93305;1204;96195;-73
2021/08/24 01:36:14;;;;;;;7.50;4.80;;;;;;;15.16;88.73;100820.88;93334;1204;87827;-73
2021/08/24 01:38:25;;;;;;;5.60;3.90;;;;;;;15.13;88.76;100817.91;93313;1204;93716;-66
2021/08/24 01:40:42;;;;;;;5.90;4.20;;;;;;;15.13;88.69;100818.78;93317;1204;78183;-65
2021/08/24 01:42:56;;;;;;;7.70;4.30;;;;;;;15.11;88.66;100819.70;93309;1204;80431;-66
2021/08/24 01:45:19;;;;;;;5.00;4.00;;;;;;;15.13;88.72;100818.24;93316;1204;96387;-65
2021/08/24 01:47:41;;;;;;;8.60;3.80;;;;;;;15.06;88.62;100814.42;93333;1204;88026;-66
2021/08/24 01:49:56;;;;;;;7.30;4.20;;;;;;;15.09;88.50;100814.67;93318;1203;94121;-66
2021/08/24 01:52:11;;;;;;;4.70;3.70;;;;;;;15.17;88.45;100814.27;93340;1204;80350;-65
2021/08/24 01:54:31;;;;;;;7.40;3.90;;;;;;;15.11;88.50;100813.55;93322;1204;80678;-74
2021/08/24 01:56:41;;;;;;;4.90;3.80;;;;;;;15.09;88.58;100816.02;93316;1199;97458;-74
2021/08/24 01:58:59;;;;;;;6.50;5.10;;;;;;;15.10;88.49;100813.59;93308;1205;86361;-65
2021/08/24 02:01:11;;;;;;;6.80;4.30;;;;;;;15.06;88.47;100809.73;93305;1205;92563;-65
2021/08/24 02:03:24;;;;;;;6.90;4.30;;;;;;;15.04;88.35;100811.78;93330;1205;80727;-65
2021/08/24 02:05:41;;;;;;;6.50;3.80;;;;;;;15.11;88.33;100810.11;93331;1204;82071;-65
2021/08/24 02:07:53;;;;;;;5.60;4.50;;;;;;;15.11;88.41;100812.55;93329;1204;97764;-65
2021/08/24 02:10:08;;;;;;;4.30;3.90;;;;;;;15.10;88.28;100817.31;93334;1204;87587;-74
2021/08/24 02:12:20;;;;;;;7.00;3.90;;;;;;;15.13;88.33;100815.69;93256;1205;92783;-73
2021/08/24 02:14:28;;;;;;;6.60;3.80;;;;;;;15.14;88.28;100811.91;93290;1204;79999;-65
2021/08/24 02:16:37;;;;;;;6.10;3.90;;;;;;;15.18;88.25;100807.15;93325;1204;81279;-65
2021/08/24 02:18:53;;;;;;;6.00;4.00;;;;;;;15.20;88.22;100806.33;93323;1204;97604;-74
2021/08/24 02:21:06;;;;;;;6.20;4.20;;;;;;;15.11;88.39;100803.46;93342;1204;88359;-75
2021/08/24 02:23:22;;;;;;;5.80;3.70;;;;;;;15.10;88.34;100808.86;93343;1205;94066;-65
2021/08/24 02:25:38;;;;;;;5.60;4.10;;;;;;;15.08;88.35;100808.36;93330;1205;80387;-66
2021/08/24 02:27:55;;;;;;;7.40;3.90;;;;;;;15.09;88.18;100807.77;93338;1205;81839;-65
2021/08/24 02:30:03;;;;;;;5.50;4.00;;;;;;;15.06;88.30;100805.88;93332;1204;98152;-65
2021/08/24 02:32:15;;;;;;;6.10;3.70;;;;;;;15.07;88.29;100805.39;93320;1204;87007;-65
2021/08/24 02:34:35;;;;;;;9.90;4.30;;;;;;;15.16;88.17;100806.27;93298;1204;94239;-65
2021/08/24 02:36:52;;;;;;;6.20;4.30;;;;;;;15.11;88.30;100806.72;93329;1204;80248;-65
2021/08/24 02:39:05;;;;;;;6.40;4.50;;;;;;;15.07;88.26;100808.02;93313;1204;82219;-65
2021/08/24 02:41:20;;;;;;;6.70;4.00;;;;;;;15.05;88.26;100806.09;93358;1204;96454;-65
2021/08/24 02:43:37;;;;;;;5.40;3.90;;;;;;;15.01;88.28;100805.34;93338;1205;87907;-65
2021/08/24 02:45:54;;;;;;;9.20;4.60;;;;;;;15.03;88.26;100807.25;93321;1203;94630;-66
2021/08/24 02:48:05;;;;;;;6.00;4.30;;;;;;;15.04;88.40;100806.01;93333;1204;79127;-73
2021/08/24 02:50:14;;;;;;;5.20;3.90;;;;;;;15.04;88.39;100803.70;93341;1204;81797;-75
2021/08/24 02:52:23;;;;;;;5.70;4.70;;;;;;;15.06;88.32;100803.21;93345;1205;98351;-75
2021/08/24 02:54:34;;;;;;;5.50;4.00;;;;;;;15.09;88.25;100804.00;93322;1205;86801;-65
2021/08/24 02:56:42;;;;;;;5.40;4.10;;;;;;;15.10;88.26;100803.61;93300;1204;94427;-65
2021/08/24 02:58:49;;;;;;;5.20;4.20;;;;;;;15.06;88.22;100799.21;93371;1204;80684;-65
2021/08/24 03:00:57;;;;;;;5.70;4.40;;;;;;;15.11;88.24;100802.04;93332;1203;81349;-65
2021/08/24 03:03:05;;;;;;;5.90;4.20;;;;;;;15.12;88.23;100803.29;93360;1205;96571;-66
2021/08/24 03:05:15;;;;;;;5.50;4.50;;;;;;;15.08;88.23;100803.08;93372;1203;87940;-65
2021/08/24 03:07:28;;;;;;;7.40;4.80;;;;;;;15.07;88.25;100803.29;93331;1205;93454;-64
2021/08/24 03:09:37;;;;;;;5.80;4.60;;;;;;;15.04;88.25;100801.31;93355;1205;80642;-65
2021/08/24 03:11:49;;;;;;;8.90;4.60;;;;;;;15.00;88.34;100802.90;93379;1204;80688;-65
2021/08/24 03:14:02;;;;;;;6.00;4.60;;;;;;;15.02;88.40;100803.33;93336;1204;98145;-65
2021/08/24 03:16:16;;;;;;;6.10;4.60;;;;;;;15.04;88.33;100805.12;93371;1205;87036;-65
2021/08/24 03:18:30;;;;;;;7.30;4.80;;;;;;;15.09;88.37;100809.10;93339;1204;93263;-75
2021/08/24 03:20:42;;;;;;;5.00;4.30;;;;;;;15.08;88.29;100812.92;93385;1203;80333;-76
2021/08/24 03:22:57;;;;;;;6.10;4.50;;;;;;;15.11;88.27;100815.60;93347;1205;82024;-75
2021/08/24 03:25:07;;;;;;;5.80;4.40;;;;;;;15.14;88.24;100819.00;93335;1204;98800;-65
2021/08/24 03:27:15;;;;;;;6.80;4.50;;;;;;;15.13;88.19;100823.63;93366;1205;87181;-67
2021/08/24 03:29:24;;;;;;;5.90;4.30;;;;;;;15.12;88.28;100821.63;93325;1204;94331;-73
2021/08/24 03:31:32;;;;;;;6.60;4.60;;;;;;;15.08;88.33;100818.27;93356;1205;79759;-75
2021/08/24 03:33:40;;;;;;;6.00;4.60;;;;;;;15.07;88.37;100825.18;93344;1205;81834;-64
2021/08/24 03:35:48;;;;;;;7.80;4.60;;;;;;;15.08;88.27;100823.77;93367;1204;97631;-66
2021/08/24 03:37:58;;;;;;;6.60;4.70;;;;;;;15.13;88.31;100822.55;93354;1204;87675;-66
2021/08/24 03:40:09;;;;;;;5.60;4.40;;;;;;;15.18;88.43;100822.09;93335;1205;92934;-65
2021/08/24 03:42:17;;;;;;;7.60;4.60;;;;;;;15.18;88.44;100819.88;93345;1200;79491;-65
2021/08/24 03:44:29;;;;;;;7.00;4.60;;;;;;;15.15;88.45;100820.00;93357;1205;81665;-65
2021/08/24 03:46:37;;;;;;;5.30;4.60;;;;;;;15.11;88.46;100818.45;93350;1205;97510;-66
2021/08/24 03:48:44;;;;;;;5.60;4.40;;;;;;;15.11;88.40;100819.91;93367;1204;87275;-65
2021/08/24 03:50:52;;;;;;;6.70;4.80;;;;;;;15.07;88.38;100820.28;93341;1204;93804;-65
2021/08/24 03:53:00;;;;;;;5.00;4.50;;;;;;;15.08;88.30;100823.92;93358;1204;79606;-66
2021/08/24 03:55:09;;;;;;;5.20;4.10;;;;;;;15.10;88.44;100826.23;93331;1204;80373;-65
2021/08/24 03:57:17;;;;;;;6.00;4.10;;;;;;;15.07;88.39;100832.81;93353;1205;97958;-65
2021/08/24 03:59:25;;;;;;;6.20;4.30;;;;;;;15.08;88.39;100831.96;93315;1205;86641;-76
2021/08/24 04:01:33;;;;;;;6.60;4.10;;;;;;;15.05;88.45;100831.95;93312;1204;95557;-74
2021/08/24 04:03:40;;;;;;;4.90;4.10;;;;;;;15.03;88.28;100836.81;93323;1205;79736;-76
2021/08/24 04:06:00;;;;;;;5.30;4.30;;;;;;;14.98;88.29;100838.48;93327;1205;81811;-75
2021/08/24 04:08:09;;;;;;;5.40;3.80;;;;;;;14.95;88.19;100836.77;93365;1204;97617;-74
2021/08/24 04:10:17;;;;;;;5.10;3.70;;;;;;;14.94;88.23;100841.54;93356;1205;86940;-75
2021/08/24 04:12:25;;;;;;;4.80;3.40;;;;;;;14.96;88.27;100841.75;93345;1204;93966;-76
2021/08/24 04:14:33;;;;;;;4.60;3.70;;;;;;;14.94;88.21;100838.44;93309;1204;81966;-75
2021/08/24 04:16:41;;;;;;;6.60;4.00;;;;;;;14.94;88.10;100840.25;93333;1204;83216;-75
2021/08/24 04:18:49;;;;;;;4.70;3.20;;;;;;;14.86;87.98;100839.21;93328;1205;98363;-65
2021/08/24 04:20:56;;;;;;;7.00;3.40;;;;;;;14.82;87.93;100841.68;93350;1204;88579;-65
2021/08/24 04:23:04;;;;;;;5.10;3.40;;;;;;;14.77;87.94;100841.80;93316;1204;92985;-65
2021/08/24 04:25:14;;;;;;;7.30;3.80;;;;;;;14.74;87.96;100844.08;93344;1204;79395;-64
2021/08/24 04:27:24;;;;;;;5.20;3.40;;;;;;;14.75;87.91;100840.95;93390;1205;80599;-66
2021/08/24 04:29:36;;;;;;;5.40;3.30;;;;;;;14.77;87.81;100843.64;93362;1204;97319;-74
2021/08/24 04:31:47;;;;;;;5.80;3.10;;;;;;;14.75;87.80;100844.59;93368;1204;88813;-74
2021/08/24 04:33:58;;;;;;;5.20;3.00;;;;;;;14.68;87.68;100849.71;93345;1205;94921;-74
2021/08/24 04:36:07;;;;;;;4.40;3.40;;;;;;;14.61;87.68;100842.79;93355;1203;80366;-74
2021/08/24 04:38:14;;;;;;;3.40;3.00;;;;;;;14.62;87.62;100847.06;93356;1205;80691;-66
2021/08/24 04:40:22;;;;;;;5.80;3.00;;;;;;;14.58;87.70;100850.73;93341;1205;97498;-65
2021/08/24 04:42:29;;;;;;;3.80;2.70;;;;;;;14.56;87.54;100846.49;93348;1204;87652;-65
2021/08/24 04:44:37;;;;;;;5.00;3.20;;;;;;;14.60;87.50;100845.80;93352;1205;93187;-65
2021/08/24 04:46:45;;;;;;;5.20;3.30;;;;;;;14.59;87.55;100845.88;93344;1205;78614;-64
2021/08/24 04:48:54;;;;;;;4.90;3.00;;;;;;;14.59;87.47;100844.95;93381;1205;80694;-75
2021/08/24 04:51:01;;;;;;;4.20;3.10;;;;;;;14.58;87.36;100845.63;93347;1204;97556;-74
2021/08/24 04:53:10;;;;;;;6.80;2.80;;;;;;;14.46;87.16;100845.38;93345;1205;87907;-74
2021/08/24 04:55:18;;;;;;;6.70;3.30;;;;;;;14.37;87.17;100846.59;93312;1205;93685;-74
2021/08/24 04:57:25;;;;;;;4.70;2.70;;;;;;;14.39;87.20;100846.23;93336;1204;79831;-74
2021/08/24 04:59:36;;;;;;;6.30;3.20;;;;;;;14.39;87.17;100849.29;93367;1205;82356;-65
2021/08/24 05:01:44;;;;;;;5.40;2.90;;;;;;;14.34;87.10;100849.39;93342;1205;98129;-66
2021/08/24 05:03:51;;;;;;;6.80;3.00;;;;;;;14.32;86.94;100848.95;93353;1205;87653;-74
2021/08/24 05:05:59;;;;;;;6.80;2.80;;;;;;;14.30;86.93;100849.00;93336;1205;93798;-74
2021/08/24 05:08:10;;;;;;;5.80;3.20;;;;;;;14.29;87.00;100854.36;93326;1205;79626;-65
2021/08/24 05:10:21;;;;;;;6.00;2.90;;;;;;;14.27;87.10;100847.61;93345;1205;80648;-65
2021/08/24 05:12:32;;;;;;;5.70;3.00;;;;;;;14.32;87.09;100847.36;93345;1205;98222;-65
2021/08/24 05:14:42;;;;;;;6.00;3.30;;;;;;;14.29;87.26;100846.69;93339;1205;87318;-74
2021/08/24 05:16:55;;;;;;;4.80;2.70;;;;;;;14.29;87.03;100844.06;93321;1206;93481;-72
2021/08/24 05:19:03;;;;;;;5.80;3.10;;;;;;;14.29;86.98;100845.86;93362;1204;80834;-65
2021/08/24 05:21:14;;;;;;;6.40;2.90;;;;;;;14.23;87.01;100843.40;93354;1205;81146;-65
2021/08/24 05:23:22;;;;;;;5.40;2.90;;;;;;;14.16;86.96;100840.58;93331;1204;96568;-64
2021/08/24 05:25:33;;;;;;;6.50;3.30;;;;;;;14.15;86.92;100841.79;93358;1205;86984;-65
2021/08/24 05:27:41;;;;;;;5.30;3.00;;;;;;;14.15;86.87;100843.71;93353;1205;93391;-64
2021/08/24 05:29:49;;;;;;;4.90;2.50;;;;;;;14.14;86.86;100844.95;93325;1205;81122;-74
2021/08/24 05:31:56;;;;;;;7.30;3.20;;;;;;;14.24;86.94;100846.92;93328;1205;82223;-74
2021/08/24 05:34:04;;;;;;;5.40;3.20;;;;;;;14.23;87.01;100853.20;93348;1204;98651;-72
2021/08/24 05:36:13;;;;;;;8.10;3.30;;;;;;;14.19;86.88;100851.00;93376;1205;89394;-72
2021/08/24 05:38:20;;;;;;;5.40;3.30;;;;;;;14.21;86.84;100855.31;93347;1205;94061;-72
2021/08/24 05:40:28;;;;;;;6.50;2.90;;;;;;;14.22;86.70;100856.98;93331;1206;78782;-74
2021/08/24 05:42:35;;;;;;;4.20;2.60;;;;;;;14.18;86.74;100859.73;93353;1205;81550;-75
2021/08/24 05:44:43;;;;;;;5.40;2.80;;;;;;;14.23;86.80;100859.17;93357;1205;97389;-65
2021/08/24 05:46:50;;;;;;;5.40;2.90;;;;;;;14.26;86.77;100863.17;93370;1204;87191;-64
2021/08/24 05:48:58;;;;;;;5.60;2.80;;;;;;;14.24;86.81;100865.20;93341;1204;94548;-72
2021/08/24 05:51:11;;;;;;;4.20;2.50;;;;;;;14.26;86.89;100867.92;93368;1205;81009;-72
2021/08/24 05:53:19;;;;;;;6.00;2.70;;;;;;;14.27;86.72;100871.40;93360;1206;80767;-63
2021/08/24 05:55:27;;;;;;;4.00;2.30;;;;;;;14.22;86.58;100874.14;93376;1205;97739;-64
2021/08/24 05:57:34;;;;;;;3.60;2.40;;;;;;;14.22;86.60;100879.48;93369;1205;86625;-64
2021/08/24 05:59:42;;;;;;;5.60;2.70;;;;;;;14.23;86.55;100881.45;93323;1200;94346;-74
2021/08/24 06:01:49;;;;;;;5.00;2.50;;;;;;;14.19;86.44;100884.57;93343;1205;80677;-74
2021/08/24 06:04:00;;;;;;;5.20;2.30;;;;;;;14.23;86.51;100889.44;93265;1205;81593;-65
2021/08/24 06:06:08;;;;;;;5.60;2.60;;;;;;;14.29;86.59;100895.20;93358;1204;97455;-65
2021/08/24 06:08:15;;;;;;;5.30;2.40;;;;;;;14.30;86.68;100900.52;93319;1204;87502;-63
2021/08/24 06:10:24;;;;;;;7.70;2.50;;;;;;;14.29;86.79;100902.19;93351;1205;94468;-64
2021/08/24 06:12:34;;;;;;;4.90;2.40;;;;;;;14.27;86.78;100910.03;93235;1205;81781;-64
2021/08/24 06:14:42;;;;;;;5.80;2.60;;;;;;;14.22;86.68;100910.97;93302;1205;80370;-64
2021/08/24 06:16:57;;;;;;;6.40;2.60;;;;;;;14.22;86.43;100915.66;93345;1205;98733;-65
2021/08/24 06:19:09;;;;;;;6.70;2.80;;;;;;;14.22;86.39;100917.11;93330;1205;88110;-74
2021/08/24 06:21:19;;;;;;;5.40;2.30;;;;;;;14.28;86.34;100922.23;93357;1205;93866;-74
2021/08/24 06:23:29;;;;;;;3.90;2.40;;;;;;;14.37;86.30;100922.66;93342;1205;79739;-65
2021/08/24 06:25:37;;;;;;;5.20;2.20;;;;;;;14.35;86.23;100920.14;93374;1204;80180;-64
2021/08/24 06:27:45;;;;;;;5.40;2.40;;;;;;;14.34;86.06;100920.64;93349;1205;98711;-65
2021/08/24 06:29:52;;;;;;;6.40;2.60;;;;;;;14.28;86.08;100920.07;93354;1204;87877;-65
2021/08/24 06:32:04;;;;;;;5.60;2.50;;;;;;;14.24;85.92;100925.62;93350;1205;92823;-66
2021/08/24 06:34:15;;;;;;;5.50;2.60;;;;;;;14.24;85.74;100921.26;93344;1200;79861;-66
2021/08/24 06:36:25;;;;;;;5.20;2.50;;;;;;;14.22;85.64;100922.00;93353;1205;80564;-65
2021/08/24 06:38:33;;;;;;;5.60;2.40;;;;;;;14.23;85.74;100921.95;93376;1200;97866;-65
2021/08/24 06:40:41;;;;;;;3.90;2.20;;;;;;;14.18;85.65;100922.94;93337;1205;87381;-65
2021/08/24 06:42:56;;;;;;;4.00;2.20;;;;;;;14.14;85.45;100926.44;93357;1205;94327;-65
2021/08/24 06:45:03;;;;;;;5.30;2.50;;;;;;;14.11;85.49;100928.55;93354;1204;80759;-65
2021/08/24 06:47:11;;;;;;;4.20;2.50;;;;;;;14.16;85.59;100924.77;93376;1205;80627;-65
2021/08/24 06:49:22;;;;;;;7.20;3.00;;;;;;;14.19;85.66;100929.97;93099;1203;97631;-74
2021/08/24 06:51:30;;;;;;;10.60;5.60;;;;;;;14.22;85.52;100929.79;93355;1205;86908;-74
2021/08/24 06:53:41;;;;;;;5.40;2.80;;;;;;;14.28;85.42;100926.98;93362;1203;94243;-65
2021/08/24 06:55:48;;;;;;;7.30;2.50;;;;;;;14.27;85.41;100923.16;93368;1196;79558;-62
2021/08/24 06:58:00;;;;;;;4.40;2.50;;;;;;;14.25;85.33;100922.14;93382;1205;82962;-65
2021/08/24 07:00:16;;;;;;;6.20;2.60;;;;;;;14.30;85.43;100921.77;93234;1205;97325;-64
2021/08/24 07:02:27;;;;;;;7.60;2.90;;;;;;;14.28;85.36;100920.98;93403;1205;86632;-63
2021/08/24 07:04:35;;;;;;;4.50;2.20;;;;;;;14.32;85.25;100926.00;93361;1204;94614;-75
2021/08/24 07:06:47;;;;;;;6.50;2.60;;;;;;;14.33;85.08;100930.16;93364;1206;77212;-74
2021/08/24 07:08:58;;;;;;;4.10;2.00;;;;;;;14.35;85.03;100933.14;93349;1204;81031;-74
2021/08/24 07:11:06;;;;;;;4.90;2.40;;;;;;;14.37;85.12;100932.70;93351;1205;96231;-74
2021/08/24 07:13:16;;;;;;;3.20;2.20;;;;;;;14.41;84.97;100933.52;93372;1205;88046;-64
2021/08/24 07:15:25;;;;;;;5.10;2.80;;;;;;;14.45;85.02;100931.60;93346;1204;93152;-64
2021/08/24 07:17:33;;;;;;;5.00;2.70;;;;;;;14.48;85.08;100934.67;93371;1205;78334;-64
2021/08/24 07:19:42;;;;;;;3.70;2.50;;;;;;;14.52;84.79;100935.74;93364;1204;81061;-76
2021/08/24 07:21:49;;;;;;;4.80;2.20;;;;;;;14.51;84.60;100936.29;93407;1205;97829;-74
2021/08/24 07:23:57;;;;;;;5.00;3.00;;;;;;;14.47;84.54;100931.00;93342;1200;87758;-74
2021/08/24 07:26:05;;;;;;;6.90;2.40;;;;;;;14.46;84.42;100936.96;93325;1205;94939;-76
2021/08/24 07:28:13;;;;;;;3.50;2.30;;;;;;;14.45;84.42;100937.98;93340;1204;80836;-75
2021/08/24 07:30:21;;;;;;;4.50;2.20;;;;;;;14.50;84.35;100940.24;93379;1204;80955;-74
2021/08/24 07:32:29;;;;;;;4.90;2.60;;;;;;;14.51;84.46;100947.16;93231;1205;97755;-74
2021/08/24 07:34:37;;;;;;;4.40;2.40;;;;;;;14.55;84.38;100949.66;93347;1205;86992;-63
2021/08/24 07:36:44;;;;;;;5.90;2.20;;;;;;;14.53;84.03;100953.66;93337;1205;93365;-65
2021/08/24 07:38:54;;;;;;;4.50;2.40;;;;;;;14.47;83.76;100952.91;93320;1206;78780;-75
2021/08/24 07:41:02;;;;;;;6.80;2.30;;;;;;;14.47;83.87;100952.81;93335;1205;80621;-75
2021/08/24 07:43:10;;;;;;;5.30;2.10;;;;;;;14.52;83.90;100957.37;93367;1205;97090;-75
2021/08/24 07:45:18;;;;;;;6.30;2.30;;;;;;;14.53;83.90;100957.70;93392;1203;88200;-74
2021/08/24 07:47:26;;;;;;;6.10;2.10;;;;;;;14.53;83.88;100958.30;93361;1205;93340;-74
2021/08/24 07:49:39;;;;;;;3.60;2.00;;;;;;;14.52;83.77;100959.75;93356;1205;80449;-64
2021/08/24 07:51:47;;;;;;;6.40;2.70;;;;;;;14.53;83.48;100962.06;93398;1205;80688;-64
2021/08/24 07:53:55;;;;;;;5.10;2.20;;;;;;;14.50;83.32;100960.55;93324;1205;97298;-74
2021/08/24 07:56:09;;;;;;;4.60;1.70;;;;;;;14.50;83.28;100961.45;93380;1204;89337;-73
2021/08/24 07:58:16;;;;;;;4.90;2.20;;;;;;;14.56;83.38;100960.11;93338;1204;93818;-64
2021/08/24 08:00:25;;;;;;;5.50;2.30;;;;;;;14.62;83.44;100962.40;93337;1205;82377;-64
2021/08/24 08:02:32;;;;;;;3.50;1.50;;;;;;;14.57;82.53;100963.02;93359;1205;82334;-64
2021/08/24 08:04:43;;;;;;;4.80;1.80;;;;;;;14.58;82.76;100964.39;93364;1205;96171;-64
2021/08/24 08:06:51;;;;;;;3.60;1.80;;;;;;;14.61;82.76;100963.86;93360;1205;87493;-65
2021/08/24 08:08:59;;;;;;;4.50;2.00;;;;;;;14.60;82.41;100964.27;93332;1205;93805;-65
2021/08/24 08:11:07;;;;;;;5.00;1.70;;;;;;;14.62;82.18;100968.55;93328;1205;81873;-65
2021/08/24 08:13:14;;;;;;;3.40;1.80;;;;;;;14.59;81.83;100966.20;93353;1205;81881;-74
2021/08/24 08:15:31;;;;;;;3.80;1.60;;;;;;;14.62;82.00;100967.84;93344;1204;96131;-74
2021/08/24 08:17:39;;;;;;;4.00;1.80;;;;;;;14.64;82.03;100968.32;93361;1205;88273;-75
2021/08/24 08:19:46;;;;;;;5.00;1.80;;;;;;;14.64;81.86;100970.82;93353;1205;94028;-64
2021/08/24 08:21:57;;;;;;;6.70;1.50;;;;;;;14.68;81.80;100971.59;93330;1206;80592;-64
2021/08/24 08:24:09;;;;;;;4.90;2.10;;;;;;;14.72;81.87;100969.23;93353;1205;82157;-65
2021/08/24 08:26:17;;;;;;;5.60;1.60;;;;;;;14.73;81.86;100973.96;93355;1203;97906;-65
2021/08/24 08:28:28;;;;;;;4.00;2.20;;;;;;;14.76;81.72;100974.84;93343;1205;88318;-64
2021/08/24 08:30:44;;;;;;;5.10;1.80;;;;;;;14.75;81.46;100978.40;93366;1204;92791;-63
2021/08/24 08:32:55;;;;;;;4.50;1.80;;;;;;;14.73;81.27;100979.77;93380;1204;79509;-65
2021/08/24 08:35:03;;;;;;;4.60;1.70;;;;;;;14.70;81.08;100979.39;93357;1205;82824;-75
2021/08/24 08:37:10;;;;;;;8.90;1.90;;;;;;;14.68;81.13;100979.91;93362;1204;98396;-75
2021/08/24 08:39:18;;;;;;;2.90;1.50;;;;;;;14.67;80.69;100982.89;93335;1205;87495;-65
2021/08/24 08:41:32;;;;;;;3.70;1.90;;;;;;;14.69;80.79;100985.38;93349;1199;92518;-64
2021/08/24 08:43:54;;;;;;;3.20;1.90;;;;;;;14.72;80.74;100987.71;93368;1204;79447;-70
2021/08/24 08:46:19;;;;;;;2.90;1.50;;;;;;;14.73;80.56;100988.98;93247;1205;81767;-68
2021/08/24 08:49:03;;;;;;;3.20;1.70;;;;;;;14.73;80.21;100993.16;93363;1205;98245;-66
2021/08/24 08:51:32;;;;;;;2.40;1.40;;;;;;;14.76;80.19;100996.39;93039;1199;88426;-66
2021/08/24 08:53:52;;;;;;;3.00;1.40;;;;;;;14.79;80.03;100999.96;93339;1205;93745;-65
2021/08/24 08:56:13;;;;;;;3.10;1.50;;;;;;;14.84;79.82;101003.13;93372;1205;79214;-65
2021/08/24 08:58:41;;;;;;;3.50;1.60;;;;;;;14.81;79.79;101001.90;93364;1205;80618;-64
2021/08/24 09:00:53;;;;;;;2.40;1.40;;;;;;;14.76;79.12;101000.41;93343;1204;98133;-64
2021/08/24 09:03:11;;;;;;;4.90;1.50;;;;;;;14.70;78.27;101000.60;93390;1204;87632;-69
2021/08/24 09:05:25;;;;;;;3.50;1.50;;;;;;;14.69;78.33;101001.35;93342;1205;93527;-64
2021/08/24 09:07:40;;;;;;;2.30;1.00;;;;;;;14.69;78.04;101002.39;93328;1205;79657;-65
2021/08/24 09:09:48;;;;;;;4.10;1.20;;;;;;;14.70;78.12;101002.95;93333;1204;80783;-70
2021/08/24 09:11:57;;;;;;;3.60;1.30;;;;;;;14.77;78.31;101003.89;93361;1205;98578;-70
2021/08/24 09:14:16;;;;;;;4.50;1.50;;;;;;;14.81;78.12;101008.60;93397;1205;86343;-61
2021/08/24 09:16:33;;;;;;;4.10;1.50;;;;;;;14.85;78.23;101006.65;93323;1205;94231;-63
2021/08/24 09:18:51;;;;;;;5.20;1.40;;;;;;;14.88;78.13;101002.70;93334;1204;78856;-63
2021/08/24 09:21:06;;;;;;;3.50;1.30;;;;;;;14.92;78.37;101001.08;93319;1205;82008;-61
2021/08/24 09:23:17;;;;;;;5.60;1.80;;;;;;;14.93;78.32;101002.20;93362;1207;96789;-64
2021/08/24 09:25:36;;;;;;;5.00;1.70;;;;;;;14.92;78.21;101000.83;93228;1203;87948;-63
2021/08/24 09:27:54;;;;;;;2.40;1.60;;;;;;;14.95;78.01;101003.80;93364;1205;93845;-65
2021/08/24 09:30:06;;;;;;;4.00;1.80;;;;;;;14.94;77.85;100998.41;93357;1203;78898;-69
2021/08/24 09:32:20;;;;;;;3.10;1.80;;;;;;;14.95;77.58;100995.77;93375;1205;82291;-70
2021/08/24 09:34:36;;;;;;;2.90;1.50;;;;;;;14.95;77.77;101002.42;93341;1197;97863;-69
2021/08/24 09:36:44;;;;;;;5.10;1.40;;;;;;;15.01;77.71;101000.39;93383;1200;86876;-68
2021/08/24 09:38:56;;;;;;;3.10;1.60;;;;;;;15.00;77.72;101002.30;93304;1205;94847;-69
2021/08/24 09:41:21;;;;;;;5.40;1.50;;;;;;;15.01;77.59;101006.14;93392;1204;80346;-69
2021/08/24 09:43:34;;;;;;;3.70;1.70;;;;;;;15.07;77.63;101006.20;93393;1204;81057;-68
2021/08/24 09:45:44;;;;;;;22.20;4.50;;;;;;;15.10;77.24;101009.44;93341;1205;97429;-71
2021/08/24 09:48:09;;;;;;;6.90;2.10;;;;;;;15.07;77.10;101010.39;93352;1205;86770;-72
2021/08/24 09:50:31;;;;;;;9.60;2.40;;;;;;;15.10;76.93;101007.05;93369;1204;94247;-72
2021/08/24 09:52:50;;;;;;;3.20;1.70;;;;;;;15.11;77.00;101008.67;93323;1205;80076;-73
2021/08/24 09:55:04;;;;;;;2.20;1.20;;;;;;;15.13;76.99;101007.44;93336;1204;81247;-73
2021/08/24 09:57:25;;;;;;;4.60;1.60;;;;;;;15.19;77.13;101009.09;93362;1203;97306;-74
2021/08/24 09:59:38;;;;;;;5.90;2.00;;;;;;;15.19;76.96;101010.32;93368;1205;87518;-63
2021/08/24 10:01:51;;;;;;;5.60;1.70;;;;;;;15.16;76.69;101013.48;93326;1204;94362;-64
2021/08/24 10:04:09;;;;;;;;;;;;;;;15.15;76.23;101009.30;93381;1205;78273;-71
2021/08/24 10:06:33;;;;;;;91.10;11.00;;;;;;;15.12;75.88;101008.78;93376;1204;80089;-73
2021/08/24 10:08:43;;;;;;;22.70;4.30;;;;;;;15.11;75.58;101009.65;93314;1204;98316;-72
2021/08/24 10:11:04;;;;;;;4.20;1.40;;;;;;;15.11;75.90;101011.36;93348;1203;87330;-72